createdAt,value
2019-02-07T00:00:24.143Z,100.00
2019-02-07T00:02:52.699Z,100.00
2019-02-07T00:05:21.322Z,100.00
2019-02-07T00:07:50.176Z,100.00
2019-02-07T00:10:20.400Z,100.00
2019-02-07T00:12:49.230Z,100.00
2019-02-07T00:15:18.623Z,100.00
2019-02-07T00:17:47.239Z,100.00
2019-02-07T00:20:20.162Z,100.00
2019-02-07T00:22:49.692Z,100.00
2019-02-07T00:25:18.400Z,100.00
2019-02-07T00:27:47.027Z,100.00
2019-02-07T00:30:20.532Z,100.00
2019-02-07T00:32:49.152Z,100.00
2019-02-07T00:35:18.084Z,100.00
2019-02-07T00:37:46.745Z,100.00
2019-02-07T00:40:22.629Z,100.00
2019-02-07T00:42:51.362Z,100.00
2019-02-07T00:45:20.695Z,100.00
2019-02-07T00:47:49.490Z,100.00
2019-02-07T00:50:18.994Z,100.00
2019-02-07T00:52:48.061Z,100.00
2019-02-07T00:55:21.055Z,100.00
2019-02-07T00:57:49.619Z,100.00
2019-02-07T01:00:23.700Z,100.00
2019-02-07T01:02:52.716Z,100.00
2019-02-07T01:05:22.615Z,100.00
2019-02-07T01:07:53.949Z,100.00
2019-02-07T01:10:27.284Z,100.00
2019-02-07T01:12:56.103Z,100.00
2019-02-07T01:15:26.026Z,100.00
2019-02-07T01:17:54.640Z,100.00
2019-02-07T01:20:23.251Z,99.55
2019-02-07T01:22:51.919Z,99.65
2019-02-07T01:25:22.035Z,99.36
2019-02-07T01:27:51.158Z,99.68
2019-02-07T01:30:22.041Z,100.00
2019-02-07T01:32:50.663Z,100.00
2019-02-07T01:35:19.382Z,100.00
2019-02-07T01:37:48.081Z,99.57
2019-02-07T01:40:18.973Z,100.00
2019-02-07T01:42:47.703Z,100.00
2019-02-07T01:45:24.206Z,100.00
2019-02-07T01:47:52.987Z,100.00
2019-02-07T01:50:25.962Z,100.00
2019-02-07T01:52:54.758Z,100.00
2019-02-07T01:55:23.472Z,100.00
2019-02-07T01:57:52.196Z,100.00
2019-02-07T02:00:21.360Z,100.00
2019-02-07T02:02:49.992Z,100.00
2019-02-07T02:05:19.629Z,100.00
2019-02-07T02:07:50.310Z,100.00
2019-02-07T02:10:27.197Z,100.00
2019-02-07T02:12:56.061Z,100.00
2019-02-07T02:15:25.388Z,100.00
2019-02-07T02:17:54.457Z,100.00
2019-02-07T02:20:24.999Z,100.00
2019-02-07T02:22:55.010Z,100.00
2019-02-07T02:25:23.727Z,100.00
2019-02-07T02:27:52.740Z,100.00
2019-02-07T02:30:33.194Z,100.00
2019-02-07T02:33:02.114Z,100.00
2019-02-07T02:35:31.025Z,100.00
2019-02-07T02:37:59.663Z,100.00
2019-02-07T02:40:35.938Z,100.00
2019-02-07T02:43:04.655Z,100.00
2019-02-07T02:45:37.448Z,100.00
2019-02-07T02:48:03.952Z,100.00
2019-02-07T02:50:32.588Z,100.00
2019-02-07T02:53:01.274Z,100.00
2019-02-07T02:55:37.669Z,100.00
2019-02-07T02:58:06.703Z,100.00
2019-02-07T03:00:43.442Z,100.00
2019-02-07T03:03:13.714Z,100.00
2019-02-07T03:05:43.978Z,100.00
2019-02-07T03:08:14.461Z,100.00
2019-02-07T03:10:44.725Z,100.00
2019-02-07T03:13:33.926Z,100.00
2019-02-07T03:16:04.051Z,100.00
2019-02-07T03:18:39.805Z,100.00
2019-02-07T03:21:25.032Z,100.00
2019-02-07T03:24:04.286Z,100.00
2019-02-07T03:26:37.606Z,100.00
2019-02-07T03:29:23.023Z,100.00
2019-02-07T03:32:01.909Z,100.00
2019-02-07T03:34:35.143Z,100.00
2019-02-07T03:37:14.463Z,100.00
2019-02-07T03:39:44.897Z,100.00
2019-02-07T03:42:24.119Z,100.00
2019-02-07T03:45:00.877Z,100.00
2019-02-07T03:47:36.959Z,100.00
2019-02-07T03:50:24.295Z,100.00
2019-02-07T03:53:00.292Z,100.00
2019-02-07T03:55:37.632Z,100.00
2019-02-07T03:58:07.899Z,100.00
2019-02-07T04:00:40.970Z,100.00
2019-02-07T04:03:14.192Z,100.00
2019-02-07T04:06:02.819Z,100.00
2019-02-07T04:08:51.244Z,100.00
2019-02-07T04:11:30.263Z,100.00
2019-02-07T04:14:00.582Z,100.00
2019-02-07T04:16:32.214Z,100.00
2019-02-07T04:19:05.874Z,100.00
2019-02-07T04:21:48.247Z,100.00
2019-02-07T04:24:24.710Z,100.00
2019-02-07T04:27:00.922Z,100.00
2019-02-07T04:29:31.151Z,100.00
2019-02-07T04:32:01.353Z,100.00
2019-02-07T04:34:31.614Z,100.00
2019-02-07T04:37:05.117Z,100.00
2019-02-07T04:39:40.696Z,100.00
2019-02-07T04:42:11.224Z,100.00
2019-02-07T04:44:59.895Z,100.00
2019-02-07T04:47:36.128Z,100.00
2019-02-07T04:50:12.047Z,100.00
2019-02-07T04:52:42.372Z,100.00
2019-02-07T04:55:12.616Z,100.00
2019-02-07T04:57:55.527Z,100.00
2019-02-07T05:00:40.796Z,100.00
2019-02-07T05:03:27.663Z,100.00
2019-02-07T05:06:03.751Z,100.00
2019-02-07T05:08:46.630Z,100.00
2019-02-07T05:11:16.902Z,100.00
2019-02-07T05:13:53.799Z,100.00
2019-02-07T05:16:43.638Z,100.00
2019-02-07T05:19:18.465Z,100.00
2019-02-07T05:21:54.870Z,100.00
2019-02-07T05:24:41.605Z,100.00
2019-02-07T05:27:11.871Z,100.00
2019-02-07T05:29:42.143Z,100.00
2019-02-07T05:32:28.933Z,100.00
2019-02-07T05:35:15.590Z,100.00
2019-02-07T05:37:45.907Z,100.00
2019-02-07T05:40:22.202Z,100.00
2019-02-07T05:42:58.410Z,100.00
2019-02-07T05:45:34.372Z,100.00
2019-02-07T05:48:04.697Z,100.00
2019-02-07T05:50:47.155Z,100.00
2019-02-07T05:53:33.028Z,100.00
2019-02-07T05:56:03.292Z,100.00
2019-02-07T05:58:50.238Z,100.00
2019-02-07T06:01:36.790Z,100.00
2019-02-07T06:04:07.287Z,100.00
2019-02-07T06:06:54.396Z,100.00
2019-02-07T06:09:36.800Z,100.00
2019-02-07T06:12:10.016Z,100.00
2019-02-07T06:14:43.788Z,100.00
2019-02-07T06:17:30.266Z,100.00
2019-02-07T06:20:03.185Z,100.00
2019-02-07T06:22:49.993Z,100.00
2019-02-07T06:25:20.291Z,100.00
2019-02-07T06:27:50.570Z,100.00
2019-02-07T06:30:21.063Z,99.57
2019-02-07T06:33:08.073Z,97.94
2019-02-07T06:35:44.399Z,95.96
2019-02-07T06:38:20.491Z,95.90
2019-02-07T06:40:53.544Z,94.74
2019-02-07T06:43:27.292Z,91.47
2019-02-07T06:46:03.400Z,87.84
2019-02-07T06:48:42.733Z,85.72
2019-02-07T06:51:16.091Z,86.37
2019-02-07T06:54:02.830Z,82.30
2019-02-07T06:56:51.281Z,83.43
2019-02-07T06:59:37.747Z,86.43
2019-02-07T07:02:24.636Z,87.60
2019-02-07T07:05:00.716Z,89.37
2019-02-07T07:07:47.637Z,89.38
2019-02-07T07:10:26.718Z,89.23
2019-02-07T07:13:02.662Z,89.79
2019-02-07T07:15:49.116Z,89.63
2019-02-07T07:18:30.848Z,90.35
2019-02-07T07:21:17.282Z,91.34
2019-02-07T07:24:04.091Z,93.56
2019-02-07T07:26:46.824Z,92.32
2019-02-07T07:29:17.083Z,90.34
2019-02-07T07:32:03.458Z,87.13
2019-02-07T07:34:49.894Z,86.28
2019-02-07T07:37:25.886Z,83.49
2019-02-07T07:40:11.119Z,79.20
2019-02-07T07:42:53.639Z,79.83
2019-02-07T07:45:23.834Z,81.58
2019-02-07T07:48:06.270Z,80.83
2019-02-07T07:50:36.529Z,78.18
2019-02-07T07:53:09.902Z,80.36
2019-02-07T07:55:43.051Z,83.92
2019-02-07T07:58:13.241Z,85.74
2019-02-07T08:00:49.757Z,87.85
2019-02-07T08:03:23.089Z,86.39
2019-02-07T08:05:53.592Z,86.31
2019-02-07T08:08:32.971Z,87.51
2019-02-07T08:11:06.981Z,89.17
2019-02-07T08:13:53.640Z,90.86
2019-02-07T08:16:23.818Z,90.03
2019-02-07T08:18:54.027Z,90.18
2019-02-07T08:21:49.540Z,90.20
2019-02-07T08:24:19.781Z,88.00
2019-02-07T08:27:08.510Z,87.92
2019-02-07T08:29:55.534Z,85.96
2019-02-07T08:32:26.061Z,84.32
2019-02-07T08:34:56.329Z,86.39
2019-02-07T08:37:26.528Z,84.20
2019-02-07T08:39:59.757Z,86.40
2019-02-07T08:42:38.803Z,86.57
2019-02-07T08:45:23.801Z,85.97
2019-02-07T08:48:06.005Z,84.03
2019-02-07T08:50:36.678Z,84.25
2019-02-07T08:53:23.042Z,82.95
2019-02-07T08:55:56.050Z,80.10
2019-02-07T08:58:26.239Z,81.70
2019-02-07T09:00:59.586Z,78.46
2019-02-07T09:03:29.888Z,77.40
2019-02-07T09:06:16.623Z,78.45
2019-02-07T09:08:52.960Z,80.22
2019-02-07T09:11:35.241Z,80.08
2019-02-07T09:14:15.396Z,78.82
2019-02-07T09:16:54.963Z,79.59
2019-02-07T09:19:40.718Z,78.88
2019-02-07T09:22:20.271Z,75.74
2019-02-07T09:25:07.277Z,75.81
2019-02-07T09:27:46.115Z,77.18
2019-02-07T09:30:28.400Z,73.33
2019-02-07T09:33:10.767Z,73.98
2019-02-07T09:35:41.055Z,77.05
2019-02-07T09:38:11.323Z,74.80
2019-02-07T09:40:53.969Z,74.68
2019-02-07T09:43:25.510Z,74.30
2019-02-07T09:45:55.957Z,74.28
2019-02-07T09:48:26.408Z,74.50
2019-02-07T09:50:59.561Z,74.89
2019-02-07T09:53:35.793Z,75.31
2019-02-07T09:56:06.218Z,73.03
2019-02-07T09:58:36.481Z,72.53
2019-02-07T10:03:54.365Z,73.15
2019-02-07T10:06:24.909Z,73.29
2019-02-07T10:09:03.787Z,74.04
2019-02-07T10:11:33.978Z,72.01
2019-02-07T10:14:22.445Z,74.33
2019-02-07T10:16:52.704Z,75.65
2019-02-07T10:19:28.594Z,74.09
2019-02-07T10:21:58.781Z,74.12
2019-02-07T10:24:31.771Z,71.85
2019-02-07T10:27:05.580Z,71.33
2019-02-07T10:29:35.835Z,71.20
2019-02-07T10:32:12.733Z,72.64
2019-02-07T10:34:42.986Z,74.11
2019-02-07T10:37:29.951Z,74.65
2019-02-07T10:40:00.351Z,74.18
2019-02-07T10:42:36.560Z,74.91
2019-02-07T10:45:12.317Z,73.59
2019-02-07T10:47:58.268Z,72.27
2019-02-07T10:50:34.265Z,72.39
2019-02-07T10:53:04.696Z,70.52
2019-02-07T10:55:37.703Z,69.55
2019-02-07T10:58:16.743Z,69.34
2019-02-07T11:01:03.591Z,68.86
2019-02-07T11:03:50.578Z,70.21
2019-02-07T11:06:37.239Z,72.31
2019-02-07T11:09:09.211Z,72.39
2019-02-07T11:11:55.722Z,73.91
2019-02-07T11:14:26.033Z,72.47
2019-02-07T11:17:11.417Z,74.45
2019-02-07T11:19:47.666Z,73.77
2019-02-07T11:22:22.936Z,74.02
2019-02-07T11:25:02.322Z,73.99
2019-02-07T11:27:35.501Z,73.73
2019-02-07T11:30:09.191Z,73.20
2019-02-07T11:32:39.444Z,73.26
2019-02-07T11:35:25.138Z,75.60
2019-02-07T11:37:58.504Z,74.49
2019-02-07T11:40:35.362Z,74.06
2019-02-07T11:43:20.904Z,74.23
2019-02-07T11:45:51.513Z,73.57
2019-02-07T11:48:21.986Z,74.94
2019-02-07T11:50:58.106Z,76.02
2019-02-07T11:53:37.573Z,75.39
2019-02-07T11:56:17.217Z,73.94
2019-02-07T11:58:56.692Z,72.62
2019-02-07T12:01:45.119Z,72.03
2019-02-07T12:04:24.219Z,72.70
2019-02-07T12:06:54.516Z,73.03
2019-02-07T12:09:41.237Z,72.98
2019-02-07T12:12:14.183Z,72.50
2019-02-07T12:14:44.475Z,69.98
2019-02-07T12:17:31.189Z,70.50
2019-02-07T12:20:01.532Z,70.90
2019-02-07T12:22:37.281Z,70.70
2019-02-07T12:25:24.534Z,70.87
2019-02-07T12:28:06.848Z,72.40
2019-02-07T12:30:39.789Z,70.88
2019-02-07T12:33:13.081Z,71.44
2019-02-07T12:36:03.706Z,72.98
2019-02-07T12:38:36.835Z,73.83
2019-02-07T12:41:14.470Z,74.29
2019-02-07T12:43:58.497Z,73.46
2019-02-07T12:46:28.823Z,73.84
2019-02-07T12:48:59.011Z,74.03
2019-02-07T12:51:32.209Z,73.12
2019-02-07T12:54:02.501Z,74.51
2019-02-07T12:56:41.800Z,76.57
2019-02-07T12:59:20.978Z,76.87
2019-02-07T13:01:51.549Z,75.67
2019-02-07T13:04:27.797Z,74.24
2019-02-07T13:07:14.718Z,76.50
2019-02-07T13:09:47.754Z,76.02
2019-02-07T13:12:23.782Z,76.69
2019-02-07T13:14:54.062Z,76.14
2019-02-07T13:17:40.448Z,76.40
2019-02-07T13:20:14.020Z,76.65
2019-02-07T13:22:50.165Z,74.72
2019-02-07T13:25:20.379Z,75.08
2019-02-07T13:27:50.525Z,75.10
2019-02-07T13:30:27.566Z,75.98
2019-02-07T13:33:00.551Z,76.80
2019-02-07T13:35:39.958Z,76.22
2019-02-07T13:38:25.450Z,76.55
2019-02-07T13:40:58.525Z,76.91
2019-02-07T13:43:37.593Z,76.98
2019-02-07T13:46:08.292Z,77.31
2019-02-07T13:48:41.796Z,78.90
2019-02-07T13:51:15.352Z,77.41
2019-02-07T13:53:45.614Z,77.48
2019-02-07T13:56:32.089Z,78.00
2019-02-07T13:59:17.358Z,79.06
2019-02-07T14:01:47.661Z,78.61
2019-02-07T14:04:32.917Z,76.38
2019-02-07T14:07:06.099Z,77.51
2019-02-07T14:09:36.357Z,78.41
2019-02-07T14:12:06.917Z,77.50
2019-02-07T14:14:37.216Z,78.19
2019-02-07T14:17:10.161Z,78.80
2019-02-07T14:19:40.413Z,79.39
2019-02-07T14:22:23.270Z,77.43
2019-02-07T14:25:09.636Z,77.59
2019-02-07T14:27:56.021Z,79.01
2019-02-07T14:30:28.911Z,80.16
2019-02-07T14:33:15.442Z,80.58
2019-02-07T14:35:48.629Z,80.86
2019-02-07T14:38:18.881Z,80.37
2019-02-07T14:40:58.164Z,80.49
2019-02-07T14:43:28.421Z,79.65
2019-02-07T14:45:58.613Z,79.45
2019-02-07T14:48:27.753Z,79.71
2019-02-07T14:50:56.363Z,78.80
2019-02-07T14:53:24.975Z,78.50
2019-02-07T14:55:53.738Z,80.06
2019-02-07T14:58:22.364Z,81.08
2019-02-07T15:00:51.015Z,80.88
2019-02-07T15:03:19.660Z,79.48
2019-02-07T15:05:48.278Z,80.77
2019-02-07T15:08:16.901Z,80.52
2019-02-07T15:10:45.567Z,81.58
2019-02-07T15:13:14.395Z,81.53
2019-02-07T15:15:43.021Z,81.64
2019-02-07T15:18:11.635Z,81.71
2019-02-07T15:20:40.716Z,82.72
2019-02-07T15:23:09.328Z,81.94
2019-02-07T15:25:37.980Z,82.55
2019-02-07T15:28:06.591Z,83.29
2019-02-07T15:30:35.222Z,82.66
2019-02-07T15:33:03.888Z,83.30
2019-02-07T15:35:35.304Z,83.76
2019-02-07T15:38:04.022Z,84.23
2019-02-07T15:40:32.757Z,84.44
2019-02-07T15:43:01.379Z,84.94
2019-02-07T15:45:30.312Z,85.83
2019-02-07T15:47:59.167Z,86.66
2019-02-07T15:50:37.801Z,86.16
2019-02-07T15:53:00.323Z,86.80
2019-02-07T15:55:29.109Z,86.75
2019-02-07T15:57:58.036Z,86.25
2019-02-07T16:00:29.413Z,86.58
2019-02-07T16:02:59.666Z,87.17
2019-02-07T16:05:28.306Z,87.21
2019-02-07T16:07:56.955Z,87.54
2019-02-07T16:10:25.984Z,88.08
2019-02-07T16:12:54.606Z,88.29
2019-02-07T16:15:23.433Z,88.40
2019-02-07T16:17:52.086Z,89.26
2019-02-07T16:20:24.398Z,89.50
2019-02-07T16:22:53.012Z,90.14
2019-02-07T16:25:21.828Z,89.48
2019-02-07T16:27:50.498Z,89.75
2019-02-07T16:30:21.210Z,90.54
2019-02-07T16:32:50.172Z,90.97
2019-02-07T16:35:20.525Z,90.69
2019-02-07T16:37:50.061Z,90.74
2019-02-07T16:40:22.073Z,90.65
2019-02-07T16:42:51.054Z,89.53
2019-02-07T16:45:26.740Z,89.32
2019-02-07T16:47:55.369Z,90.35
2019-02-07T16:50:29.641Z,89.10
2019-02-07T16:52:58.434Z,90.72
2019-02-07T16:55:27.199Z,90.01
2019-02-07T16:57:55.897Z,90.80
2019-02-07T17:00:29.651Z,89.73
2019-02-07T17:02:58.528Z,90.04
2019-02-07T17:05:27.564Z,89.58
2019-02-07T17:07:56.441Z,90.14
2019-02-07T17:10:41.173Z,91.11
2019-02-07T17:13:11.795Z,91.26
2019-02-07T17:15:40.533Z,91.01
2019-02-07T17:18:09.157Z,91.70
2019-02-07T17:20:38.326Z,92.00
2019-02-07T17:23:07.163Z,92.03
2019-02-07T17:25:35.799Z,92.27
2019-02-07T17:28:04.789Z,92.96
2019-02-07T17:30:34.006Z,92.91
2019-02-07T17:33:02.627Z,93.11
2019-02-07T17:35:32.955Z,93.26
2019-02-07T17:38:01.665Z,93.41
2019-02-07T17:40:33.284Z,93.42
2019-02-07T17:43:01.965Z,94.28
2019-02-07T17:45:31.656Z,93.56
2019-02-07T17:48:00.288Z,93.44
2019-02-07T17:50:37.340Z,93.57
2019-02-07T17:53:08.374Z,93.00
2019-02-07T17:55:36.991Z,93.03
2019-02-07T17:58:06.927Z,93.84
2019-02-07T18:00:48.935Z,93.61
2019-02-07T18:03:17.780Z,92.78
2019-02-07T18:05:46.410Z,93.10
2019-02-07T18:08:15.041Z,93.14
2019-02-07T18:10:43.793Z,93.12
2019-02-07T18:13:12.463Z,92.82
2019-02-07T18:15:41.096Z,93.67
2019-02-07T18:18:09.824Z,93.61
2019-02-07T18:20:38.460Z,93.52
2019-02-07T18:23:07.076Z,93.12
2019-02-07T18:25:35.756Z,93.24
2019-02-07T18:28:04.837Z,93.70
2019-02-07T18:30:33.458Z,92.84
2019-02-07T18:33:02.113Z,93.31
2019-02-07T18:35:30.845Z,92.93
2019-02-07T18:37:59.426Z,92.37
2019-02-07T18:40:29.575Z,92.18
2019-02-07T18:42:58.195Z,92.15
2019-02-07T18:45:26.836Z,92.23
2019-02-07T18:47:55.498Z,91.66
2019-02-07T18:50:26.824Z,91.03
2019-02-07T18:52:55.452Z,91.53
2019-02-07T18:55:24.182Z,91.33
2019-02-07T18:57:53.020Z,90.60
2019-02-07T19:00:24.832Z,90.01
2019-02-07T19:02:53.666Z,88.64
2019-02-07T19:05:23.795Z,88.14
2019-02-07T19:07:52.940Z,88.05
2019-02-07T19:10:24.147Z,87.91
2019-02-07T19:12:52.767Z,88.59
2019-02-07T19:15:44.131Z,88.34
2019-02-07T19:18:12.780Z,87.48
2019-02-07T19:20:41.397Z,88.06
2019-02-07T19:23:10.060Z,88.17
2019-02-07T19:25:39.100Z,87.60
2019-02-07T19:28:08.103Z,87.81
2019-02-07T19:30:36.918Z,88.40
2019-02-07T19:33:06.050Z,87.88
2019-02-07T19:35:34.671Z,88.57
2019-02-07T19:38:03.450Z,88.67
2019-02-07T19:40:32.074Z,88.21
2019-02-07T19:43:00.623Z,88.35
2019-02-07T19:45:29.682Z,88.34
2019-02-07T19:47:58.301Z,87.93
2019-02-07T19:50:27.938Z,88.26
2019-02-07T19:52:56.802Z,88.47
2019-02-07T19:55:31.106Z,88.80
2019-02-07T19:57:59.724Z,89.22
2019-02-07T20:00:31.036Z,89.18
2019-02-07T20:03:00.037Z,89.14
2019-02-07T20:05:29.162Z,89.61
2019-02-07T20:07:57.820Z,89.58
2019-02-07T20:10:30.010Z,88.70
2019-02-07T20:12:59.441Z,88.92
2019-02-07T20:15:37.005Z,88.62
2019-02-07T20:18:07.934Z,88.68
2019-02-07T20:20:36.760Z,89.12
2019-02-07T20:23:05.423Z,88.49
2019-02-07T20:25:34.241Z,88.52
2019-02-07T20:28:02.800Z,89.12
2019-02-07T20:30:39.732Z,89.37
2019-02-07T20:33:08.865Z,88.24
2019-02-07T20:35:37.584Z,88.32
2019-02-07T20:38:07.251Z,88.39
2019-02-07T20:40:35.873Z,88.33
2019-02-07T20:43:05.471Z,88.78
2019-02-07T20:45:34.095Z,88.82
2019-02-07T20:48:02.717Z,87.96
2019-02-07T20:50:31.337Z,87.09
2019-02-07T20:53:00.005Z,87.04
2019-02-07T20:55:28.702Z,87.33
2019-02-07T20:57:57.354Z,87.54
2019-02-07T21:00:37.690Z,88.19
2019-02-07T21:03:06.629Z,88.32
2019-02-07T21:05:35.364Z,88.35
2019-02-07T21:08:04.499Z,89.21
2019-02-07T21:10:35.564Z,89.41
2019-02-07T21:13:04.966Z,90.11
2019-02-07T21:15:34.418Z,90.53
2019-02-07T21:18:02.976Z,90.82
2019-02-07T21:20:32.118Z,90.78
2019-02-07T21:23:01.895Z,90.18
2019-02-07T21:25:44.955Z,90.54
2019-02-07T21:28:13.835Z,90.42
2019-02-07T21:30:42.551Z,89.77
2019-02-07T21:33:11.187Z,89.41
2019-02-07T21:35:39.862Z,89.42
2019-02-07T21:38:08.787Z,89.61
2019-02-07T21:40:37.505Z,89.71
2019-02-07T21:43:07.238Z,89.82
2019-02-07T21:45:35.877Z,90.05
2019-02-07T21:48:06.805Z,90.47
2019-02-07T21:50:35.488Z,90.72
2019-02-07T21:53:11.570Z,90.76
2019-02-07T21:55:40.454Z,90.17
2019-02-07T21:58:09.874Z,90.92
2019-02-07T22:00:40.698Z,90.61
2019-02-07T22:03:10.961Z,89.97
2019-02-07T22:05:39.586Z,90.06
2019-02-07T22:08:09.013Z,88.68
2019-02-07T22:10:37.886Z,88.82
2019-02-07T22:13:07.021Z,89.04
2019-02-07T22:15:35.645Z,88.98
2019-02-07T22:18:05.309Z,88.74
2019-02-07T22:20:33.944Z,88.36
2019-02-07T22:23:02.502Z,88.64
2019-02-07T22:25:31.120Z,88.77
2019-02-07T22:27:59.800Z,89.19
2019-02-07T22:30:34.028Z,89.36
2019-02-07T22:33:02.681Z,89.99
2019-02-07T22:35:31.506Z,89.77
2019-02-07T22:38:00.725Z,89.87
2019-02-07T22:40:29.494Z,89.55
2019-02-07T22:42:59.622Z,89.78
2019-02-07T22:45:28.526Z,89.78
2019-02-07T22:47:57.296Z,88.86
2019-02-07T22:50:30.306Z,87.52
2019-02-07T22:53:00.527Z,87.37
2019-02-07T22:55:29.398Z,86.49
2019-02-07T22:57:58.034Z,86.75
2019-02-07T23:00:34.589Z,86.39
2019-02-07T23:03:11.862Z,86.47
2019-02-07T23:05:40.527Z,86.76
2019-02-07T23:08:09.456Z,86.36
2019-02-07T23:10:38.090Z,86.71
2019-02-07T23:13:08.366Z,86.55
2019-02-07T23:15:37.320Z,86.72
2019-02-07T23:18:08.319Z,86.47
2019-02-07T23:20:37.174Z,86.85
2019-02-07T23:23:08.379Z,86.36
2019-02-07T23:25:37.503Z,85.68
2019-02-07T23:28:06.991Z,85.44
2019-02-07T23:30:36.113Z,85.77
2019-02-07T23:33:05.641Z,86.18
2019-02-07T23:35:34.226Z,86.53
2019-02-07T23:38:02.952Z,87.07
2019-02-07T23:40:31.576Z,87.26
2019-02-07T23:43:00.544Z,86.83
2019-02-07T23:45:29.172Z,86.97
2019-02-07T23:47:57.798Z,86.83
2019-02-07T23:50:26.467Z,87.41
2019-02-07T23:52:55.085Z,87.18
2019-02-07T23:55:23.723Z,86.81
2019-02-07T23:57:52.382Z,86.93
